Time;durP1;ratioP1;P1;durP2;ratioP2;P2;SDS_P1;SDS_P2;PMS_P1;PMS_P2;Temp;Humidity;BMP_temperature;BMP_pressure;BME280_temperature;BME280_humidity;BME280_pressure;Samples;Min_cycle;Max_cycle;Signal;HPM_P1;HPM_P2
2021/05/03 00:01:27;;;;;;;14.63;13.13;;;7.40;94.50;;;;;;6248913;28;20099;-76
2021/05/03 00:04:28;;;;;;;14.75;13.23;;;7.40;94.70;;;;;;6248845;28;20183;-76
2021/05/03 00:07:29;;;;;;;14.18;12.48;;;7.30;95.00;;;;;;6249547;28;20148;-76
2021/05/03 00:10:31;;;;;;;17.60;14.32;;;7.20;95.30;;;;;;6247765;28;20041;-76
2021/05/03 00:13:32;;;;;;;19.38;14.82;;;7.10;95.80;;;;;;6248683;28;20570;-76
2021/05/03 00:16:34;;;;;;;16.88;14.40;;;7.10;96.20;;;;;;6247350;28;20046;-76
2021/05/03 00:19:36;;;;;;;14.88;13.27;;;7.00;96.50;;;;;;6248664;28;20507;-76
2021/05/03 00:22:37;;;;;;;13.85;12.55;;;7.10;96.80;;;;;;6248389;28;20504;-77
2021/05/03 00:25:39;;;;;;;18.50;13.98;;;7.20;96.80;;;;;;6248775;28;20080;-76
2021/05/03 00:28:41;;;;;;;18.85;14.25;;;7.20;96.90;;;;;;6223749;28;20589;-76
2021/05/03 00:31:43;;;;;;;18.00;16.08;;;7.20;97.00;;;;;;6223881;28;20496;-77
2021/05/03 00:34:44;;;;;;;18.00;16.20;;;7.20;97.20;;;;;;6224466;28;20104;-76
2021/05/03 00:37:45;;;;;;;21.67;16.33;;;7.20;97.30;;;;;;6223754;28;20077;-76
2021/05/03 00:40:47;;;;;;;16.70;14.95;;;7.20;97.60;;;;;;6223000;28;20117;-75
2021/05/03 00:43:50;;;;;;;23.50;15.55;;;7.20;97.60;;;;;;6223799;28;20145;-77
2021/05/03 00:46:54;;;;;;;16.45;14.60;;;7.30;97.60;;;;;;6224119;28;20140;-76
2021/05/03 00:49:55;;;;;;;16.70;14.65;;;7.30;97.60;;;;;;6223016;28;20046;-77
2021/05/03 00:52:57;;;;;;;17.13;14.73;;;7.40;97.40;;;;;;6223477;28;20069;-76
2021/05/03 00:55:58;;;;;;;15.07;13.32;;;7.40;97.20;;;;;;6223275;28;20050;-76
2021/05/03 00:59:00;;;;;;;14.70;13.30;;;7.40;97.10;;;;;;6223972;28;20156;-76
2021/05/03 01:02:02;;;;;;;14.68;13.18;;;7.30;97.10;;;;;;6223221;28;20081;-76
2021/05/03 01:05:04;;;;;;;15.93;14.25;;;7.20;97.00;;;;;;6223146;28;20396;-76
2021/05/03 01:08:06;;;;;;;13.63;12.27;;;7.20;97.10;;;;;;6223083;28;20037;-76
2021/05/03 01:11:07;;;;;;;13.57;12.20;;;7.10;97.10;;;;;;6222900;28;20396;-76
2021/05/03 01:14:08;;;;;;;13.20;11.85;;;7.10;97.10;;;;;;6223059;28;20049;-76
2021/05/03 01:17:10;;;;;;;12.48;11.18;;;7.10;97.10;;;;;;6234315;28;20052;-76
2021/05/03 01:20:14;;;;;;;11.98;10.75;;;7.10;96.90;;;;;;6246742;28;20418;-76
2021/05/03 01:23:16;;;;;;;13.73;12.43;;;7.10;96.70;;;;;;6247748;28;20582;-77
2021/05/03 01:26:17;;;;;;;13.68;11.95;;;7.10;96.90;;;;;;6247439;28;20080;-77
2021/05/03 01:29:19;;;;;;;15.23;11.63;;;7.10;96.80;;;;;;6246064;28;20124;-77
2021/05/03 01:32:20;;;;;;;13.82;12.30;;;7.00;96.80;;;;;;6247397;28;20056;-76
2021/05/03 01:35:22;;;;;;;13.88;11.00;;;7.00;97.00;;;;;;6247754;28;20092;-76
2021/05/03 01:38:24;;;;;;;12.38;10.93;;;6.90;97.10;;;;;;6247283;28;20514;-76
2021/05/03 01:41:25;;;;;;;13.52;12.18;;;6.90;97.10;;;;;;6246862;28;20451;-77
2021/05/03 01:44:29;;;;;;;12.40;11.18;;;6.90;97.20;;;;;;6247456;28;20065;-76
2021/05/03 01:47:31;;;;;;;14.27;11.57;;;6.90;97.00;;;;;;6247555;28;20139;-76
2021/05/03 01:50:32;;;;;;;13.00;11.65;;;6.90;97.00;;;;;;6246513;28;20187;-76
2021/05/03 01:53:35;;;;;;;13.38;12.05;;;6.90;97.10;;;;;;6246835;28;20576;-76
2021/05/03 01:56:37;;;;;;;13.73;11.80;;;6.80;97.00;;;;;;6246978;28;20099;-76
2021/05/03 01:59:39;;;;;;;17.15;12.38;;;6.80;97.10;;;;;;6247508;28;20042;-76
2021/05/03 02:02:45;;;;;;;12.70;11.40;;;6.80;97.30;;;;;;6246942;28;20081;-76
2021/05/03 02:05:46;;;;;;;16.60;14.73;;;6.80;97.30;;;;;;6246793;28;20184;-76
2021/05/03 02:08:49;;;;;;;13.18;11.30;;;6.80;97.20;;;;;;6246311;28;20132;-77
2021/05/03 02:11:50;;;;;;;14.20;11.45;;;6.70;97.00;;;;;;6246930;28;20503;-76
2021/05/03 02:14:51;;;;;;;12.55;11.23;;;6.80;97.00;;;;;;6247344;28;20119;-76
2021/05/03 02:17:53;;;;;;;11.20;9.95;;;6.80;96.50;;;;;;6236386;28;20053;-77
2021/05/03 02:20:54;;;;;;;15.73;11.63;;;6.80;96.50;;;;;;6245088;28;20053;-76
2021/05/03 02:23:56;;;;;;;11.38;10.25;;;6.80;96.00;;;;;;6246867;28;20538;-76
2021/05/03 02:26:58;;;;;;;11.90;8.75;;;6.90;95.90;;;;;;6246888;28;20053;-76
2021/05/03 02:29:59;;;;;;;12.25;11.02;;;6.90;95.60;;;;;;6246234;28;20125;-76
2021/05/03 02:33:00;;;;;;;11.50;10.07;;;6.80;95.30;;;;;;6247785;28;20045;-77
2021/05/03 02:36:02;;;;;;;12.20;11.00;;;6.90;95.00;;;;;;6250540;28;20052;-76
2021/05/03 02:39:05;;;;;;;12.10;10.77;;;6.80;94.80;;;;;;6242813;28;20080;-76
2021/05/03 02:42:07;;;;;;;12.45;11.15;;;6.90;94.70;;;;;;6250733;28;20095;-76
2021/05/03 02:45:09;;;;;;;11.40;10.02;;;6.90;94.40;;;;;;6251121;28;20069;-76
2021/05/03 02:48:11;;;;;;;14.02;10.57;;;6.80;94.30;;;;;;6250508;28;20125;-76
2021/05/03 02:51:12;;;;;;;9.65;8.75;;;6.70;94.30;;;;;;6251355;28;20060;-76
2021/05/03 02:54:14;;;;;;;9.93;8.90;;;6.60;94.40;;;;;;6250813;28;20069;-76
2021/05/03 02:57:16;;;;;;;13.00;11.30;;;6.50;94.50;;;;;;6250555;28;20045;-76
2021/05/03 03:00:24;;;;;;;11.68;10.48;;;6.40;94.70;;;;;;6250036;28;20048;-76
2021/05/03 03:03:25;;;;;;;11.50;10.30;;;6.40;94.80;;;;;;6250956;28;20053;-76
2021/05/03 03:06:27;;;;;;;12.88;10.98;;;6.30;95.00;;;;;;6250930;28;20072;-75
2021/05/03 03:09:29;;;;;;;11.55;10.25;;;6.20;95.10;;;;;;6250313;28;20077;-75
2021/05/03 03:12:30;;;;;;;12.00;10.75;;;6.20;95.30;;;;;;6252120;28;20061;-77
2021/05/03 03:15:34;;;;;;;11.30;10.20;;;6.10;95.60;;;;;;6248187;28;20132;-76
2021/05/03 03:18:35;;;;;;;16.58;14.93;;;6.00;95.90;;;;;;6245824;28;20053;-76
2021/05/03 03:21:36;;;;;;;14.02;11.00;;;6.00;98.20;;;;;;6251383;28;20076;-76
2021/05/03 03:24:39;;;;;;;11.15;9.90;;;6.10;97.20;;;;;;6256293;28;20103;-79
2021/05/03 03:27:40;;;;;;;14.20;11.77;;;6.00;97.00;;;;;;6259241;28;20112;-76
2021/05/03 03:30:41;;;;;;;12.73;11.27;;;6.00;96.90;;;;;;6256796;28;20081;-77
2021/05/03 03:33:43;;;;;;;13.32;9.85;;;6.10;96.90;;;;;;6256479;28;20120;-76
2021/05/03 03:36:44;;;;;;;12.98;10.27;;;6.10;96.80;;;;;;6254189;28;20633;-77
2021/05/03 03:39:46;;;;;;;12.65;10.57;;;6.10;96.70;;;;;;6256299;28;20083;-78
2021/05/03 03:42:48;;;;;;;11.68;10.48;;;6.20;96.70;;;;;;6257776;28;20479;-78
2021/05/03 03:45:49;;;;;;;10.20;9.13;;;6.10;96.70;;;;;;6260601;28;20049;-78
2021/05/03 03:48:50;;;;;;;16.13;10.93;;;6.20;96.60;;;;;;6261043;28;20514;-78
2021/05/03 03:51:52;;;;;;;12.18;10.23;;;6.20;96.50;;;;;;6261052;28;20140;-78
2021/05/03 03:54:54;;;;;;;15.18;12.20;;;6.30;96.50;;;;;;6259279;28;20141;-76
2021/05/03 03:57:55;;;;;;;15.68;10.75;;;6.30;96.40;;;;;;6260785;28;20061;-78
2021/05/03 04:00:57;;;;;;;10.85;9.13;;;6.30;96.40;;;;;;6258809;28;20576;-77
2021/05/03 04:04:02;;;;;;;13.57;11.10;;;6.30;96.40;;;;;;6261157;28;20049;-79
2021/05/03 04:07:09;;;;;;;12.60;11.20;;;6.30;96.50;;;;;;6258379;28;20465;-76
2021/05/03 04:10:23;;;;;;;16.80;12.07;;;6.30;96.40;;;;;;6262220;28;20053;-78
2021/05/03 04:13:43;;;;;;;14.13;12.65;;;6.30;96.30;;;;;;6261039;28;20053;-81
2021/05/03 04:26:42;;;;;;;11.77;10.52;;;6.30;96.40;;;;;;6266813;28;20542;-78
2021/05/03 04:29:43;;;;;;;12.98;11.63;;;6.30;96.30;;;;;;6261962;28;20041;-78
2021/05/03 04:32:44;;;;;;;17.52;11.85;;;6.30;96.30;;;;;;6267828;28;20076;-78
2021/05/03 04:35:46;;;;;;;15.82;11.50;;;6.30;96.30;;;;;;6268115;28;20049;-79
2021/05/03 04:38:47;;;;;;;14.15;11.63;;;6.30;96.30;;;;;;6264992;28;20042;-78
2021/05/03 04:41:49;;;;;;;14.70;10.95;;;6.40;96.20;;;;;;6268194;28;20045;-79
2021/05/03 04:44:51;;;;;;;12.95;10.73;;;6.50;96.10;;;;;;6266706;28;20542;-79
2021/05/03 04:47:52;;;;;;;15.90;12.15;;;6.50;96.00;;;;;;6252581;28;20211;-77
2021/05/03 04:50:55;;;;;;;13.77;12.00;;;6.50;95.90;;;;;;6254064;28;20056;-77
2021/05/03 04:53:57;;;;;;;15.07;12.70;;;6.40;95.90;;;;;;6262033;28;20060;-77
2021/05/03 04:56:59;;;;;;;12.65;11.35;;;6.40;96.00;;;;;;6258306;28;20053;-77
2021/05/03 05:00:01;;;;;;;14.98;12.73;;;6.40;96.20;;;;;;6258715;28;20046;-77
2021/05/03 05:03:02;;;;;;;15.57;12.85;;;6.40;96.40;;;;;;6259573;28;20131;-76
2021/05/03 05:06:04;;;;;;;15.20;13.57;;;6.40;96.40;;;;;;6257611;28;20048;-78
2021/05/03 05:09:07;;;;;;;15.75;12.30;;;6.40;96.30;;;;;;6254406;28;20045;-78
2021/05/03 05:12:10;;;;;;;15.43;12.05;;;6.40;96.30;;;;;;6255662;28;20041;-78
2021/05/03 05:15:11;;;;;;;15.27;11.93;;;6.40;96.30;;;;;;6255304;28;20061;-77
2021/05/03 05:18:13;;;;;;;11.75;10.55;;;6.50;96.40;;;;;;6254679;28;20122;-77
2021/05/03 05:21:14;;;;;;;14.55;12.43;;;6.60;96.30;;;;;;6252881;28;20069;-78
2021/05/03 05:24:16;;;;;;;11.25;10.05;;;6.60;96.60;;;;;;6252563;28;20084;-77
2021/05/03 05:27:18;;;;;;;13.60;12.20;;;6.60;96.10;;;;;;6252374;28;20224;-77
2021/05/03 05:30:20;;;;;;;11.88;10.38;;;6.70;95.90;;;;;;6251064;28;20055;-77
2021/05/03 05:33:21;;;;;;;12.07;10.88;;;6.80;95.50;;;;;;6248912;28;20045;-77
2021/05/03 05:36:23;;;;;;;17.35;11.55;;;7.00;95.10;;;;;;6256661;28;20113;-79
2021/05/03 05:39:24;;;;;;;18.75;16.23;;;7.20;94.70;;;;;;6260000;28;20056;-78
2021/05/03 05:42:26;;;;;;;13.10;11.80;;;7.40;94.30;;;;;;6259744;28;20069;-78
2021/05/03 05:45:28;;;;;;;11.45;10.25;;;7.60;93.70;;;;;;6259170;28;20065;-79
2021/05/03 05:48:29;;;;;;;12.77;11.48;;;7.80;93.10;;;;;;6261181;28;20104;-78
2021/05/03 05:51:30;;;;;;;16.02;12.38;;;8.00;92.60;;;;;;6259058;28;20068;-79
2021/05/03 05:54:32;;;;;;;14.48;10.00;;;8.20;91.90;;;;;;6260972;28;20715;-78
2021/05/03 05:57:34;;;;;;;11.45;10.07;;;8.40;91.30;;;;;;6259875;28;20633;-79
2021/05/03 06:00:35;;;;;;;12.45;11.18;;;8.70;90.80;;;;;;6259711;28;20049;-79
2021/05/03 06:03:37;;;;;;;11.32;10.13;;;8.90;89.90;;;;;;6260135;28;20066;-77
2021/05/03 06:06:38;;;;;;;12.00;10.57;;;9.20;88.10;;;;;;6254213;28;20080;-78
2021/05/03 06:09:40;;;;;;;11.15;9.85;;;9.40;86.80;;;;;;6257242;28;20050;-78
2021/05/03 06:12:42;;;;;;;10.65;9.55;;;9.50;85.00;;;;;;6244858;28;20046;-78
2021/05/03 06:15:43;;;;;;;13.27;10.68;;;9.70;84.70;;;;;;6268719;28;20073;-78
2021/05/03 06:18:45;;;;;;;10.80;9.63;;;9.90;83.80;;;;;;6271122;28;20041;-79
2021/05/03 06:21:46;;;;;;;18.27;12.68;;;10.10;82.90;;;;;;6266411;28;20045;-79
2021/05/03 06:24:47;;;;;;;11.13;10.02;;;10.30;81.70;;;;;;6270903;28;20045;-78
2021/05/03 06:27:49;;;;;;;11.52;10.43;;;10.50;81.20;;;;;;6267665;28;20053;-78
2021/05/03 06:30:55;;;;;;;11.30;10.18;;;10.70;80.10;;;;;;6268640;28;20058;-79
2021/05/03 06:33:56;;;;;;;11.45;10.15;;;10.90;78.50;;;;;;6268816;28;20041;-79
2021/05/03 06:36:58;;;;;;;11.57;10.38;;;11.10;77.40;;;;;;6268881;28;20045;-79
2021/05/03 06:39:59;;;;;;;11.73;10.63;;;11.40;76.20;;;;;;6268719;28;20079;-79
2021/05/03 06:43:01;;;;;;;11.93;10.52;;;11.50;75.20;;;;;;6268183;28;20430;-78
2021/05/03 06:46:03;;;;;;;12.80;11.50;;;11.60;74.00;;;;;;6267625;28;20049;-78
2021/05/03 06:49:04;;;;;;;12.13;10.50;;;11.80;73.30;;;;;;6266478;28;20045;-78
2021/05/03 06:52:06;;;;;;;10.32;9.25;;;12.00;72.20;;;;;;6266736;28;20042;-78
2021/05/03 06:55:08;;;;;;;12.55;9.88;;;12.20;69.90;;;;;;6268724;28;20057;-78
2021/05/03 06:58:10;;;;;;;9.50;8.10;;;12.40;68.50;;;;;;6266012;28;20125;-78
2021/05/03 07:01:13;;;;;;;10.05;8.80;;;12.60;67.00;;;;;;6264133;28;20088;-78
2021/05/03 07:04:15;;;;;;;11.60;9.77;;;12.80;64.60;;;;;;6265782;28;20053;-78
2021/05/03 07:07:16;;;;;;;9.65;8.75;;;12.80;63.70;;;;;;6266253;28;20426;-79
2021/05/03 07:10:17;;;;;;;8.77;7.88;;;13.00;62.00;;;;;;6265478;28;20045;-78
2021/05/03 07:13:20;;;;;;;8.25;7.45;;;13.10;61.40;;;;;;6257555;28;20050;-79
2021/05/03 07:16:21;;;;;;;11.23;9.48;;;13.30;60.60;;;;;;6241511;28;20057;-78
2021/05/03 07:19:23;;;;;;;12.20;8.75;;;13.40;59.10;;;;;;6246270;28;20054;-79
2021/05/03 07:22:24;;;;;;;10.40;8.27;;;13.70;58.70;;;;;;6248042;28;20053;-79
2021/05/03 07:25:25;;;;;;;9.35;8.43;;;14.00;58.60;;;;;;6259587;28;20052;-79
2021/05/03 07:28:27;;;;;;;10.02;8.88;;;14.10;57.70;;;;;;6264845;28;20049;-79
2021/05/03 07:31:29;;;;;;;10.50;9.40;;;14.10;56.80;;;;;;6268398;28;20045;-80
2021/05/03 07:34:30;;;;;;;8.73;7.82;;;14.20;56.70;;;;;;6268503;28;20069;-79
2021/05/03 07:37:31;;;;;;;9.27;8.38;;;14.40;56.90;;;;;;6268596;28;20064;-79
2021/05/03 07:40:33;;;;;;;10.05;8.93;;;14.60;56.10;;;;;;6267533;28;20060;-78
2021/05/03 07:43:36;;;;;;;9.10;7.70;;;14.90;55.50;;;;;;6274541;28;20171;-79
2021/05/03 07:46:38;;;;;;;9.63;8.63;;;15.20;54.00;;;;;;6269192;28;20140;-79
2021/05/03 07:49:39;;;;;;;8.90;8.00;;;15.10;53.10;;;;;;6268344;28;20041;-79
2021/05/03 07:52:41;;;;;;;10.93;9.05;;;15.10;54.00;;;;;;6267576;28;20664;-80
2021/05/03 07:55:42;;;;;;;9.07;8.15;;;15.30;52.50;;;;;;6266914;28;20507;-80
2021/05/03 07:58:46;;;;;;;8.70;7.80;;;15.50;52.70;;;;;;6267882;28;20073;-80
2021/05/03 08:01:48;;;;;;;13.77;8.85;;;15.60;52.10;;;;;;6266511;28;20056;-80
2021/05/03 08:04:49;;;;;;;10.05;9.05;;;15.70;51.70;;;;;;6267253;28;20115;-78
2021/05/03 08:07:50;;;;;;;9.85;8.93;;;15.70;51.20;;;;;;6268451;28;20050;-79
2021/05/03 08:10:52;;;;;;;9.50;8.48;;;15.60;51.50;;;;;;6259259;28;20045;-78
2021/05/03 08:13:54;;;;;;;9.52;8.45;;;15.90;51.60;;;;;;6262497;28;20403;-78
2021/05/03 08:17:00;;;;;;;9.82;8.88;;;16.10;50.90;;;;;;6256182;28;20045;-78
2021/05/03 08:20:01;;;;;;;8.93;7.97;;;16.20;50.20;;;;;;6259552;28;20045;-77
2021/05/03 08:23:08;;;;;;;7.72;7.05;;;16.30;49.90;;;;;;6253208;28;20132;-78
2021/05/03 08:26:10;;;;;;;7.97;7.28;;;16.60;48.90;;;;;;6244324;28;20129;-78
2021/05/03 08:29:12;;;;;;;10.25;8.32;;;16.90;48.20;;;;;;6232626;28;20097;-78
2021/05/03 08:32:13;;;;;;;9.15;7.57;;;17.00;47.80;;;;;;6230831;28;20038;-76
2021/05/03 08:35:15;;;;;;;9.52;7.13;;;17.20;46.30;;;;;;6227341;28;20054;-77
2021/05/03 08:38:18;;;;;;;7.93;6.57;;;17.30;46.10;;;;;;6230043;28;20125;-79
2021/05/03 08:41:19;;;;;;;7.90;7.20;;;17.30;46.90;;;;;;6231283;28;20050;-78
2021/05/03 08:44:21;;;;;;;8.02;6.97;;;17.50;46.40;;;;;;6231337;28;20062;-78
2021/05/03 08:47:25;;;;;;;9.32;6.53;;;17.60;45.10;;;;;;6232861;28;20088;-78
2021/05/03 08:50:43;;;;;;;9.93;8.23;;;17.70;44.20;;;;;;6232492;28;20049;-78
2021/05/03 08:53:54;;;;;;;8.55;7.75;;;17.70;43.80;;;;;;6227700;28;20060;-78
2021/05/03 08:56:57;;;;;;;11.10;7.50;;;17.50;43.60;;;;;;6224987;28;20574;-74
2021/05/03 08:59:59;;;;;;;8.88;6.93;;;17.50;44.40;;;;;;6229197;28;20042;-75
2021/05/03 09:03:01;;;;;;;9.27;8.38;;;17.80;44.20;;;;;;6224070;28;20141;-76
2021/05/03 09:06:04;;;;;;;9.27;8.15;;;18.00;43.60;;;;;;6223621;28;20133;-77
2021/05/03 09:09:07;;;;;;;6.97;6.45;;;18.20;43.20;;;;;;6223227;28;20042;-77
2021/05/03 09:12:11;;;;;;;8.82;7.80;;;18.40;42.70;;;;;;6224948;28;20125;-76
2021/05/03 09:15:19;;;;;;;9.82;5.97;;;18.50;41.20;;;;;;6226069;28;20054;-76
2021/05/03 09:18:21;;;;;;;6.72;6.18;;;18.70;41.90;;;;;;6223533;28;20665;-76
2021/05/03 09:21:26;;;;;;;7.35;6.03;;;18.70;41.10;;;;;;6224321;28;20054;-77
2021/05/03 09:24:29;;;;;;;7.93;7.22;;;18.70;41.80;;;;;;6229834;28;20068;-77
2021/05/03 09:27:30;;;;;;;6.75;5.30;;;18.60;41.00;;;;;;6247264;28;20143;-76
2021/05/03 09:30:34;;;;;;;6.60;6.03;;;18.60;39.10;;;;;;6246010;28;20171;-76
2021/05/03 09:33:38;;;;;;;5.78;5.03;;;18.60;39.40;;;;;;6247323;28;20069;-78
2021/05/03 09:36:39;;;;;;;6.78;5.70;;;18.90;39.50;;;;;;6250627;28;20075;-77
2021/05/03 09:39:41;;;;;;;8.57;5.90;;;19.30;38.70;;;;;;6249971;28;20128;-77
2021/05/03 09:42:49;;;;;;;6.85;4.88;;;19.70;37.60;;;;;;6246354;28;20132;-76
2021/05/03 09:45:51;;;;;;;6.40;5.78;;;20.20;36.70;;;;;;6246040;28;20516;-77
2021/05/03 09:48:53;;;;;;;7.90;5.65;;;20.40;36.90;;;;;;6244295;28;20121;-76
2021/05/03 09:51:57;;;;;;;7.72;5.00;;;20.10;36.60;;;;;;6244986;28;20136;-76
2021/05/03 09:54:58;;;;;;;7.70;7.00;;;19.90;36.40;;;;;;6246482;28;20549;-76
2021/05/03 09:58:12;;;;;;;5.55;4.93;;;19.40;37.00;;;;;;6246476;28;20130;-76
2021/05/03 10:01:16;;;;;;;5.25;4.75;;;19.30;36.60;;;;;;6245483;28;20444;-76
2021/05/03 10:04:18;;;;;;;6.82;5.78;;;19.20;36.30;;;;;;6245821;28;20415;-76
2021/05/03 10:07:21;;;;;;;9.13;6.13;;;19.20;35.80;;;;;;6246815;28;20050;-76
2021/05/03 10:10:24;;;;;;;5.15;4.65;;;19.30;35.90;;;;;;6246016;28;20091;-77
2021/05/03 10:13:26;;;;;;;7.28;6.15;;;19.00;37.00;;;;;;6246256;28;20139;-76
2021/05/03 10:16:31;;;;;;;5.85;5.28;;;18.50;37.70;;;;;;6245832;28;20132;-76
2021/05/03 10:19:34;;;;;;;5.32;4.78;;;18.00;38.30;;;;;;6246758;28;20053;-76
2021/05/03 10:22:35;;;;;;;6.68;5.30;;;18.30;38.80;;;;;;6246029;28;20144;-77
2021/05/03 10:25:36;;;;;;;5.75;5.13;;;18.70;37.80;;;;;;6243150;28;20076;-76
2021/05/03 10:28:50;;;;;;;6.10;5.30;;;18.90;37.50;;;;;;6242365;28;20092;-76
2021/05/03 10:32:02;;;;;;;6.15;5.07;;;19.30;36.40;;;;;;6246545;28;20053;-76
2021/05/03 10:35:05;;;;;;;6.53;5.90;;;19.30;36.20;;;;;;6246684;28;20055;-76
2021/05/03 10:38:08;;;;;;;7.07;5.85;;;18.80;36.80;;;;;;6246321;28;20069;-77
2021/05/03 10:41:31;;;;;;;5.63;5.07;;;18.10;37.60;;;;;;6246337;28;20069;-77
2021/05/03 10:44:34;;;;;;;7.65;6.03;;;18.00;39.40;;;;;;6242810;28;20050;-76
2021/05/03 10:47:40;;;;;;;7.07;4.75;;;18.50;38.20;;;;;;6273133;28;20030;-75
2021/05/03 10:50:43;;;;;;;6.15;5.05;;;18.90;37.50;;;;;;6278084;28;20123;-75
2021/05/03 10:53:46;;;;;;;6.45;5.60;;;19.10;36.30;;;;;;6277576;28;20101;-75
2021/05/03 10:56:47;;;;;;;11.00;4.78;;;19.10;36.60;;;;;;6281653;28;20056;-75
2021/05/03 10:59:51;;;;;;;7.93;5.15;;;19.70;35.80;;;;;;6281994;28;20049;-76
2021/05/03 11:02:54;;;;;;;6.30;5.05;;;19.70;36.30;;;;;;6282273;28;20117;-76
2021/05/03 11:05:55;;;;;;;5.60;5.10;;;19.70;36.50;;;;;;6281804;28;20049;-75
2021/05/03 11:09:30;;;;;;;5.53;4.80;;;19.80;35.40;;;;;;6281156;28;20026;-76
2021/05/03 11:12:32;;;;;;;5.70;5.15;;;19.20;36.30;;;;;;6268877;28;20563;-76
2021/05/03 11:15:33;;;;;;;9.13;6.15;;;18.60;37.20;;;;;;6251335;28;20530;-76
2021/05/03 11:18:40;;;;;;;5.75;5.20;;;18.30;36.90;;;;;;6250766;28;20057;-76
2021/05/03 11:21:44;;;;;;;5.97;5.03;;;18.00;37.70;;;;;;6250355;28;20468;-76
2021/05/03 11:24:50;;;;;;;5.15;4.47;;;17.80;37.30;;;;;;6251823;28;20049;-77
2021/05/03 11:27:59;;;;;;;6.38;4.43;;;17.60;38.20;;;;;;6242205;28;20056;-77
2021/05/03 11:31:12;;;;;;;6.68;6.03;;;17.70;39.70;;;;;;6253334;28;20136;-77
2021/05/03 11:34:20;;;;;;;4.45;3.50;;;18.40;37.90;;;;;;6251296;28;20456;-76
2021/05/03 11:37:31;;;;;;;4.70;4.30;;;18.40;37.80;;;;;;6250922;28;20045;-78
2021/05/03 11:40:50;;;;;;;5.32;3.80;;;18.20;37.90;;;;;;6260422;28;20049;-78
2021/05/03 11:43:58;;;;;;;5.82;4.03;;;18.20;37.30;;;;;;6257557;28;20103;-77
2021/05/03 11:47:04;;;;;;;5.13;4.50;;;18.00;37.40;;;;;;6257943;28;20056;-76
2021/05/03 11:50:08;;;;;;;4.30;3.90;;;17.90;37.90;;;;;;6254806;28;20518;-78
2021/05/03 11:53:09;;;;;;;5.00;4.43;;;17.70;37.60;;;;;;6256635;28;20134;-77
2021/05/03 11:56:23;;;;;;;5.13;4.68;;;17.40;37.90;;;;;;6251209;28;20577;-76
2021/05/03 11:59:24;;;;;;;5.13;4.63;;;17.20;38.30;;;;;;6249553;28;20045;-76
2021/05/03 12:02:26;;;;;;;5.97;5.47;;;16.90;39.00;;;;;;6250454;28;20072;-76
2021/05/03 12:05:31;;;;;;;5.53;5.05;;;16.70;39.80;;;;;;6258173;28;20064;-77
2021/05/03 12:08:32;;;;;;;6.28;5.07;;;16.40;41.00;;;;;;6258294;28;20045;-79
2021/05/03 12:11:34;;;;;;;6.40;4.97;;;16.20;41.20;;;;;;6261134;28;20152;-79
2021/05/03 12:14:47;;;;;;;7.00;4.78;;;16.10;42.80;;;;;;6260055;28;20042;-78
2021/05/03 12:17:50;;;;;;;5.70;5.20;;;16.00;44.70;;;;;;6259905;28;20076;-79
2021/05/03 12:20:53;;;;;;;6.55;5.75;;;16.10;43.70;;;;;;6259046;28;20071;-79
2021/05/03 12:23:54;;;;;;;5.70;5.10;;;16.60;42.40;;;;;;6259649;28;20053;-79
2021/05/03 12:26:58;;;;;;;6.15;5.55;;;17.10;41.10;;;;;;6258306;28;20080;-79
2021/05/03 12:30:00;;;;;;;4.63;4.03;;;17.30;39.50;;;;;;6245866;28;20499;-78
2021/05/03 12:33:08;;;;;;;6.18;4.13;;;17.10;39.80;;;;;;6257241;28;20084;-79
2021/05/03 12:36:12;;;;;;;11.82;6.30;;;17.30;39.60;;;;;;6259237;28;20148;-78
2021/05/03 12:39:13;;;;;;;8.20;6.15;;;17.40;38.80;;;;;;6260675;28;20526;-79
2021/05/03 12:42:16;;;;;;;4.03;3.72;;;17.40;39.00;;;;;;6259978;28;20033;-78
2021/05/03 12:45:31;;;;;;;5.03;4.40;;;17.40;36.90;;;;;;6262819;28;20063;-79
2021/05/03 12:48:40;;;;;;;5.57;3.65;;;17.60;37.40;;;;;;6258711;28;20049;-78
2021/05/03 12:52:01;;;;;;;5.20;3.53;;;17.70;37.20;;;;;;6256255;28;20124;-79
2021/05/03 12:55:09;;;;;;;3.47;3.03;;;17.80;36.80;;;;;;6261352;28;20533;-80
2021/05/03 12:58:21;;;;;;;4.40;3.80;;;17.80;36.30;;;;;;6260165;28;20136;-80
2021/05/03 13:01:33;;;;;;;6.50;4.22;;;17.90;36.40;;;;;;6258724;28;20045;-79
2021/05/03 13:04:41;;;;;;;4.22;3.67;;;18.20;36.50;;;;;;6260594;28;20057;-80
2021/05/03 13:07:57;;;;;;;5.88;4.75;;;18.60;36.20;;;;;;6261504;28;20537;-79
2021/05/03 13:25:01;;;;;;;5.72;4.03;;;18.50;36.60;;;;;;6261843;28;20037;-77
2021/05/03 13:28:06;;;;;;;5.15;4.63;;;18.70;36.00;;;;;;6253516;28;20041;-78
2021/05/03 13:31:07;;;;;;;7.47;4.18;;;18.80;36.20;;;;;;6229663;28;20188;-77
2021/05/03 13:34:10;;;;;;;5.82;4.70;;;18.80;36.20;;;;;;6229523;28;20508;-77
2021/05/03 13:37:12;;;;;;;4.95;4.32;;;18.70;37.00;;;;;;6237291;28;20060;-77
2021/05/03 13:40:15;;;;;;;7.03;3.80;;;18.80;36.10;;;;;;6241228;28;20057;-78
2021/05/03 13:43:16;;;;;;;9.10;4.68;;;18.90;35.50;;;;;;6240069;28;20049;-79
2021/05/03 13:46:19;;;;;;;5.57;4.38;;;18.90;36.30;;;;;;6238887;28;20061;-78
2021/05/03 13:49:20;;;;;;;6.05;4.05;;;18.80;35.80;;;;;;6234345;28;20045;-78
2021/05/03 13:52:21;;;;;;;4.05;3.45;;;18.70;36.00;;;;;;6235640;28;20037;-78
2021/05/03 13:55:23;;;;;;;4.57;3.80;;;18.90;36.60;;;;;;6234829;28;20049;-78
2021/05/03 13:58:25;;;;;;;5.05;4.07;;;19.30;35.50;;;;;;6231634;28;20046;-77
2021/05/03 14:01:26;;;;;;;3.63;3.33;;;19.60;35.00;;;;;;6222416;28;20139;-75
2021/05/03 14:04:28;;;;;;;33.15;21.27;;;19.70;35.40;;;;;;6223671;28;20048;-77
2021/05/03 14:07:29;;;;;;;5.90;4.57;;;19.80;35.90;;;;;;6229837;28;20551;-77
2021/05/03 14:10:31;;;;;;;6.30;4.18;;;19.80;35.30;;;;;;6230342;28;20092;-76
2021/05/03 14:13:33;;;;;;;4.00;3.60;;;19.50;35.20;;;;;;6227799;28;20053;-77
2021/05/03 14:16:35;;;;;;;5.22;3.58;;;19.40;35.80;;;;;;6227275;28;20124;-77
2021/05/03 14:19:39;;;;;;;3.72;3.28;;;19.30;35.40;;;;;;6226681;28;20060;-77
2021/05/03 14:22:40;;;;;;;5.85;5.28;;;19.20;35.00;;;;;;6202051;28;20526;-78
2021/05/03 14:25:43;;;;;;;5.43;4.75;;;19.30;35.20;;;;;;6217179;28;20512;-78
2021/05/03 14:28:47;;;;;;;3.95;3.55;;;19.30;35.30;;;;;;6224679;28;20034;-77
2021/05/03 14:31:52;;;;;;;6.63;6.03;;;19.40;35.40;;;;;;6248009;28;20124;-77
2021/05/03 14:34:59;;;;;;;6.85;6.15;;;19.40;34.90;;;;;;6255674;28;20061;-77
2021/05/03 14:38:00;;;;;;;5.68;5.18;;;19.60;34.70;;;;;;6255147;28;20068;-77
2021/05/03 14:41:03;;;;;;;9.20;7.72;;;19.60;34.10;;;;;;6253606;28;20077;-77
2021/05/03 14:44:05;;;;;;;9.30;8.35;;;19.30;34.30;;;;;;6255939;28;20042;-77
2021/05/03 14:47:11;;;;;;;8.75;7.28;;;18.90;35.40;;;;;;6255480;28;20050;-79
2021/05/03 14:50:19;;;;;;;14.75;13.27;;;18.70;35.50;;;;;;6262723;28;20052;-77
2021/05/03 14:53:30;;;;;;;5.55;4.80;;;18.40;36.20;;;;;;6261824;28;20049;-79
2021/05/03 14:56:32;;;;;;;4.55;4.15;;;18.20;36.60;;;;;;6266782;28;20100;-79
2021/05/03 14:59:34;;;;;;;5.35;4.95;;;18.30;36.20;;;;;;6267261;28;20424;-80
2021/05/03 15:02:36;;;;;;;10.30;4.55;;;18.60;36.40;;;;;;6266658;28;20041;-78
2021/05/03 15:05:38;;;;;;;10.20;9.10;;;18.90;36.00;;;;;;6267174;28;20239;-79
2021/05/03 15:08:40;;;;;;;3.92;3.25;;;18.90;35.90;;;;;;6266489;28;20045;-78
2021/05/03 15:14:54;;;;;;;9.18;6.95;;;18.90;35.80;;;;;;6272308;22;20061;-79
2021/05/03 15:21:31;;;;;;;3.58;3.28;;;18.80;35.30;;;;;;6247813;28;20050;-79
2021/05/03 15:24:33;;;;;;;3.90;3.33;;;18.80;35.10;;;;;;6253693;28;20095;-80
2021/05/03 15:27:38;;;;;;;2.90;2.60;;;18.80;35.00;;;;;;6253584;28;20470;-79
2021/05/03 15:30:56;;;;;;;5.55;3.38;;;18.80;34.70;;;;;;6249704;28;20498;-79
2021/05/03 15:33:58;;;;;;;4.13;2.92;;;18.90;35.10;;;;;;6230650;28;20515;-80
2021/05/03 15:36:59;;;;;;;5.15;3.15;;;19.00;37.40;;;;;;6229178;28;20054;-79
2021/05/03 15:40:00;;;;;;;5.00;3.00;;;18.90;34.90;;;;;;6228961;28;20084;-79
2021/05/03 15:43:02;;;;;;;4.82;3.13;;;18.80;35.60;;;;;;6230580;28;20076;-79
2021/05/03 15:46:05;;;;;;;4.18;3.40;;;18.80;35.60;;;;;;6230534;28;20069;-82
2021/05/03 15:49:07;;;;;;;3.75;3.45;;;18.70;37.30;;;;;;6229011;28;20053;-79
2021/05/03 15:52:08;;;;;;;3.67;3.08;;;18.60;35.20;;;;;;6229417;28;20042;-79
2021/05/03 15:55:11;;;;;;;3.30;3.00;;;18.40;35.70;;;;;;6229902;28;20104;-79
2021/05/03 15:58:13;;;;;;;3.05;2.75;;;18.30;35.70;;;;;;6229479;28;20124;-79
2021/05/03 16:01:17;;;;;;;3.40;2.90;;;18.10;35.60;;;;;;6229193;28;20124;-79
2021/05/03 16:04:18;;;;;;;3.65;3.35;;;17.90;35.40;;;;;;6228407;28;20052;-79
2021/05/03 16:07:20;;;;;;;3.35;3.05;;;17.60;36.20;;;;;;6229672;28;20077;-79
2021/05/03 16:10:21;;;;;;;13.25;6.28;;;17.40;37.10;;;;;;6227163;28;20084;-79
2021/05/03 16:13:22;;;;;;;58.92;25.20;;;17.40;37.60;;;;;;6225986;28;20124;-79
2021/05/03 16:16:25;;;;;;;3.53;3.22;;;17.40;39.90;;;;;;6227089;28;20052;-78